sensor_id;sensor_type;location;lat;lon;timestamp;temperature;humidity
79301;SHT31;68755;51.984;5.646;2023-05-24T00:00:47;12.9;59.3
79301;SHT31;68755;51.984;5.646;2023-05-24T00:03:19;12.8;59.3
79301;SHT31;68755;51.984;5.646;2023-05-24T00:05:49;12.8;59.2
79301;SHT31;68755;51.984;5.646;2023-05-24T00:08:18;12.8;59.4
79301;SHT31;68755;51.984;5.646;2023-05-24T00:10:48;12.8;59.5
79301;SHT31;68755;51.984;5.646;2023-05-24T00:13:17;12.8;59.5
79301;SHT31;68755;51.984;5.646;2023-05-24T00:15:47;12.7;59.5
79301;SHT31;68755;51.984;5.646;2023-05-24T00:18:18;12.7;59.4
79301;SHT31;68755;51.984;5.646;2023-05-24T00:20:50;12.7;60.0
79301;SHT31;68755;51.984;5.646;2023-05-24T00:23:23;12.7;59.7
79301;SHT31;68755;51.984;5.646;2023-05-24T00:25:53;12.6;59.9
79301;SHT31;68755;51.984;5.646;2023-05-24T00:28:23;12.6;60.1
79301;SHT31;68755;51.984;5.646;2023-05-24T00:30:52;12.6;59.8
79301;SHT31;68755;51.984;5.646;2023-05-24T00:33:22;12.6;60.1
79301;SHT31;68755;51.984;5.646;2023-05-24T00:35:52;12.6;60.0
79301;SHT31;68755;51.984;5.646;2023-05-24T00:38:23;12.5;60.0
79301;SHT31;68755;51.984;5.646;2023-05-24T00:40:53;12.5;60.2
79301;SHT31;68755;51.984;5.646;2023-05-24T00:43:24;12.5;60.2
79301;SHT31;68755;51.984;5.646;2023-05-24T00:46:09;12.5;60.4
79301;SHT31;68755;51.984;5.646;2023-05-24T00:48:42;12.5;60.4
79301;SHT31;68755;51.984;5.646;2023-05-24T00:51:13;12.4;60.3
79301;SHT31;68755;51.984;5.646;2023-05-24T00:53:46;12.4;60.3
79301;SHT31;68755;51.984;5.646;2023-05-24T00:56:17;12.4;60.5
79301;SHT31;68755;51.984;5.646;2023-05-24T00:58:49;12.4;60.5
79301;SHT31;68755;51.984;5.646;2023-05-24T01:01:21;12.4;60.6
79301;SHT31;68755;51.984;5.646;2023-05-24T01:03:53;12.4;60.0
79301;SHT31;68755;51.984;5.646;2023-05-24T01:06:26;12.3;60.0
79301;SHT31;68755;51.984;5.646;2023-05-24T01:09:05;12.3;60.2
79301;SHT31;68755;51.984;5.646;2023-05-24T01:11:49;12.3;60.3
79301;SHT31;68755;51.984;5.646;2023-05-24T01:14:28;12.3;60.6
79301;SHT31;68755;51.984;5.646;2023-05-24T01:17:03;12.2;60.1
79301;SHT31;68755;51.984;5.646;2023-05-24T01:19:55;12.2;60.1
79301;SHT31;68755;51.984;5.646;2023-05-24T01:22:50;12.3;60.6
79301;SHT31;68755;51.984;5.646;2023-05-24T01:25:40;12.4;60.5
79301;SHT31;68755;51.984;5.646;2023-05-24T01:28:16;12.5;60.1
79301;SHT31;68755;51.984;5.646;2023-05-24T01:30:49;12.6;59.6
79301;SHT31;68755;51.984;5.646;2023-05-24T01:33:19;12.6;58.7
79301;SHT31;68755;51.984;5.646;2023-05-24T01:35:49;12.6;58.3
79301;SHT31;68755;51.984;5.646;2023-05-24T01:38:19;12.6;58.5
79301;SHT31;68755;51.984;5.646;2023-05-24T01:40:53;12.5;58.3
79301;SHT31;68755;51.984;5.646;2023-05-24T01:43:33;12.4;58.7
79301;SHT31;68755;51.984;5.646;2023-05-24T01:46:12;12.3;58.8
79301;SHT31;68755;51.984;5.646;2023-05-24T01:48:56;12.3;59.2
79301;SHT31;68755;51.984;5.646;2023-05-24T01:51:35;12.2;59.4
79301;SHT31;68755;51.984;5.646;2023-05-24T01:54:08;12.1;59.7
79301;SHT31;68755;51.984;5.646;2023-05-24T01:56:40;12.1;59.7
79301;SHT31;68755;51.984;5.646;2023-05-24T01:59:12;12.0;60.2
79301;SHT31;68755;51.984;5.646;2023-05-24T02:01:42;12.0;59.9
79301;SHT31;68755;51.984;5.646;2023-05-24T02:04:13;11.9;59.7
79301;SHT31;68755;51.984;5.646;2023-05-24T02:06:42;11.9;60.2
79301;SHT31;68755;51.984;5.646;2023-05-24T02:09:12;11.8;60.7
79301;SHT31;68755;51.984;5.646;2023-05-24T02:11:42;11.8;61.0
79301;SHT31;68755;51.984;5.646;2023-05-24T02:14:11;11.7;61.0
79301;SHT31;68755;51.984;5.646;2023-05-24T02:16:43;11.7;61.2
79301;SHT31;68755;51.984;5.646;2023-05-24T02:19:13;11.7;61.4
79301;SHT31;68755;51.984;5.646;2023-05-24T02:21:43;11.6;61.7
79301;SHT31;68755;51.984;5.646;2023-05-24T02:24:13;11.6;61.7
79301;SHT31;68755;51.984;5.646;2023-05-24T02:26:43;11.6;61.9
79301;SHT31;68755;51.984;5.646;2023-05-24T02:29:13;11.6;61.7
79301;SHT31;68755;51.984;5.646;2023-05-24T02:31:42;11.6;61.8
79301;SHT31;68755;51.984;5.646;2023-05-24T02:34:12;11.5;61.8
79301;SHT31;68755;51.984;5.646;2023-05-24T02:36:42;11.5;62.2
79301;SHT31;68755;51.984;5.646;2023-05-24T02:39:12;11.5;62.5
79301;SHT31;68755;51.984;5.646;2023-05-24T02:41:41;11.5;62.3
79301;SHT31;68755;51.984;5.646;2023-05-24T02:44:11;11.5;62.4
79301;SHT31;68755;51.984;5.646;2023-05-24T02:46:40;11.5;62.6
79301;SHT31;68755;51.984;5.646;2023-05-24T02:49:10;11.4;62.6
79301;SHT31;68755;51.984;5.646;2023-05-24T02:51:40;11.4;62.5
79301;SHT31;68755;51.984;5.646;2023-05-24T02:54:09;11.4;62.9
79301;SHT31;68755;51.984;5.646;2023-05-24T02:56:39;11.4;62.7
79301;SHT31;68755;51.984;5.646;2023-05-24T02:59:09;11.4;62.8
79301;SHT31;68755;51.984;5.646;2023-05-24T03:01:41;11.4;62.6
79301;SHT31;68755;51.984;5.646;2023-05-24T03:04:10;11.4;62.2
79301;SHT31;68755;51.984;5.646;2023-05-24T03:06:40;11.3;62.4
79301;SHT31;68755;51.984;5.646;2023-05-24T03:09:10;11.3;62.6
79301;SHT31;68755;51.984;5.646;2023-05-24T03:11:39;11.3;62.8
79301;SHT31;68755;51.984;5.646;2023-05-24T03:14:09;11.3;63.0
79301;SHT31;68755;51.984;5.646;2023-05-24T03:16:41;11.3;62.8
79301;SHT31;68755;51.984;5.646;2023-05-24T03:19:10;11.2;63.1
79301;SHT31;68755;51.984;5.646;2023-05-24T03:21:40;11.2;63.2
79301;SHT31;68755;51.984;5.646;2023-05-24T03:24:09;11.2;62.3
79301;SHT31;68755;51.984;5.646;2023-05-24T03:26:39;11.2;62.4
79301;SHT31;68755;51.984;5.646;2023-05-24T03:29:09;11.2;62.9
79301;SHT31;68755;51.984;5.646;2023-05-24T03:31:38;11.1;63.0
79301;SHT31;68755;51.984;5.646;2023-05-24T03:34:08;11.1;63.3
79301;SHT31;68755;51.984;5.646;2023-05-24T03:36:39;11.1;63.3
79301;SHT31;68755;51.984;5.646;2023-05-24T03:39:09;11.1;63.7
79301;SHT31;68755;51.984;5.646;2023-05-24T03:41:39;11.1;63.6
79301;SHT31;68755;51.984;5.646;2023-05-24T03:44:08;11.1;63.8
79301;SHT31;68755;51.984;5.646;2023-05-24T03:46:38;11.1;63.9
79301;SHT31;68755;51.984;5.646;2023-05-24T03:49:08;11.1;64.1
79301;SHT31;68755;51.984;5.646;2023-05-24T03:51:37;11.0;63.9
79301;SHT31;68755;51.984;5.646;2023-05-24T03:54:07;11.0;63.7
79301;SHT31;68755;51.984;5.646;2023-05-24T03:56:36;11.0;63.7
79301;SHT31;68755;51.984;5.646;2023-05-24T03:59:08;11.0;63.9
79301;SHT31;68755;51.984;5.646;2023-05-24T04:01:38;11.0;63.5
79301;SHT31;68755;51.984;5.646;2023-05-24T04:04:07;11.0;63.9
79301;SHT31;68755;51.984;5.646;2023-05-24T04:06:37;11.0;64.3
79301;SHT31;68755;51.984;5.646;2023-05-24T04:09:08;11.0;64.3
79301;SHT31;68755;51.984;5.646;2023-05-24T04:11:38;10.9;64.5
79301;SHT31;68755;51.984;5.646;2023-05-24T04:14:07;10.9;64.8
79301;SHT31;68755;51.984;5.646;2023-05-24T04:16:38;10.9;64.9
79301;SHT31;68755;51.984;5.646;2023-05-24T04:19:08;10.9;65.1
79301;SHT31;68755;51.984;5.646;2023-05-24T04:21:37;10.9;65.3
79301;SHT31;68755;51.984;5.646;2023-05-24T04:24:07;10.9;65.2
79301;SHT31;68755;51.984;5.646;2023-05-24T04:26:37;10.9;65.5
79301;SHT31;68755;51.984;5.646;2023-05-24T04:29:08;10.9;65.5
79301;SHT31;68755;51.984;5.646;2023-05-24T04:31:39;10.9;65.9
79301;SHT31;68755;51.984;5.646;2023-05-24T04:34:10;11.0;66.3
79301;SHT31;68755;51.984;5.646;2023-05-24T04:36:40;11.0;66.3
79301;SHT31;68755;51.984;5.646;2023-05-24T04:39:10;11.0;66.8
79301;SHT31;68755;51.984;5.646;2023-05-24T04:41:40;11.0;67.0
79301;SHT31;68755;51.984;5.646;2023-05-24T04:44:09;11.0;67.3
79301;SHT31;68755;51.984;5.646;2023-05-24T04:46:39;11.1;67.5
79301;SHT31;68755;51.984;5.646;2023-05-24T04:49:08;11.1;67.7
79301;SHT31;68755;51.984;5.646;2023-05-24T04:51:38;11.2;67.8
79301;SHT31;68755;51.984;5.646;2023-05-24T04:54:07;11.2;67.9
79301;SHT31;68755;51.984;5.646;2023-05-24T04:56:37;11.3;67.9
79301;SHT31;68755;51.984;5.646;2023-05-24T04:59:07;11.3;67.9
79301;SHT31;68755;51.984;5.646;2023-05-24T05:01:38;11.3;68.4
79301;SHT31;68755;51.984;5.646;2023-05-24T05:04:07;11.4;68.4
79301;SHT31;68755;51.984;5.646;2023-05-24T05:06:37;11.4;68.5
79301;SHT31;68755;51.984;5.646;2023-05-24T05:09:07;11.5;68.7
79301;SHT31;68755;51.984;5.646;2023-05-24T05:11:40;11.5;68.5
79301;SHT31;68755;51.984;5.646;2023-05-24T05:14:09;11.6;68.8
79301;SHT31;68755;51.984;5.646;2023-05-24T05:16:40;11.6;68.8
79301;SHT31;68755;51.984;5.646;2023-05-24T05:19:11;11.7;69.1
79301;SHT31;68755;51.984;5.646;2023-05-24T05:21:40;11.7;69.4
79301;SHT31;68755;51.984;5.646;2023-05-24T05:24:10;11.8;69.9
79301;SHT31;68755;51.984;5.646;2023-05-24T05:26:39;11.8;69.9
79301;SHT31;68755;51.984;5.646;2023-05-24T05:29:09;11.9;70.0
79301;SHT31;68755;51.984;5.646;2023-05-24T05:31:41;11.9;70.2
79301;SHT31;68755;51.984;5.646;2023-05-24T05:34:10;11.9;70.3
79301;SHT31;68755;51.984;5.646;2023-05-24T05:36:40;12.0;70.3
79301;SHT31;68755;51.984;5.646;2023-05-24T05:39:09;12.0;70.6
79301;SHT31;68755;51.984;5.646;2023-05-24T05:41:39;12.1;70.1
79301;SHT31;68755;51.984;5.646;2023-05-24T05:44:12;12.1;69.9
79301;SHT31;68755;51.984;5.646;2023-05-24T05:46:44;12.2;70.1
79301;SHT31;68755;51.984;5.646;2023-05-24T05:49:13;12.2;70.3
79301;SHT31;68755;51.984;5.646;2023-05-24T05:51:45;12.2;70.2
79301;SHT31;68755;51.984;5.646;2023-05-24T05:54:15;12.3;70.0
79301;SHT31;68755;51.984;5.646;2023-05-24T05:56:46;12.3;70.1
79301;SHT31;68755;51.984;5.646;2023-05-24T05:59:17;12.4;69.7
79301;SHT31;68755;51.984;5.646;2023-05-24T06:01:47;12.4;69.9
79301;SHT31;68755;51.984;5.646;2023-05-24T06:04:17;12.4;69.9
79301;SHT31;68755;51.984;5.646;2023-05-24T06:06:48;12.5;70.2
79301;SHT31;68755;51.984;5.646;2023-05-24T06:09:18;12.5;69.4
79301;SHT31;68755;51.984;5.646;2023-05-24T06:11:48;12.6;69.4
79301;SHT31;68755;51.984;5.646;2023-05-24T06:14:19;12.6;69.2
79301;SHT31;68755;51.984;5.646;2023-05-24T06:16:51;12.6;69.2
79301;SHT31;68755;51.984;5.646;2023-05-24T06:19:21;12.7;69.1
79301;SHT31;68755;51.984;5.646;2023-05-24T06:21:51;12.7;68.7
79301;SHT31;68755;51.984;5.646;2023-05-24T06:24:21;12.8;69.0
79301;SHT31;68755;51.984;5.646;2023-05-24T06:26:51;12.8;68.7
79301;SHT31;68755;51.984;5.646;2023-05-24T06:29:23;12.8;68.9
79301;SHT31;68755;51.984;5.646;2023-05-24T06:31:53;12.9;68.7
79301;SHT31;68755;51.984;5.646;2023-05-24T06:34:23;12.9;67.4
79301;SHT31;68755;51.984;5.646;2023-05-24T06:36:52;12.9;68.2
79301;SHT31;68755;51.984;5.646;2023-05-24T06:39:24;13.0;67.5
79301;SHT31;68755;51.984;5.646;2023-05-24T06:41:54;13.0;68.1
79301;SHT31;68755;51.984;5.646;2023-05-24T06:44:24;13.1;68.2
79301;SHT31;68755;51.984;5.646;2023-05-24T06:47:00;13.1;68.0
79301;SHT31;68755;51.984;5.646;2023-05-24T06:49:30;13.2;67.2
79301;SHT31;68755;51.984;5.646;2023-05-24T06:51:59;13.2;66.0
79301;SHT31;68755;51.984;5.646;2023-05-24T06:54:29;13.3;65.8
79301;SHT31;68755;51.984;5.646;2023-05-24T06:56:59;13.3;65.6
79301;SHT31;68755;51.984;5.646;2023-05-24T06:59:30;13.3;65.9
79301;SHT31;68755;51.984;5.646;2023-05-24T07:01:59;13.4;65.8
79301;SHT31;68755;51.984;5.646;2023-05-24T07:04:31;13.4;66.4
79301;SHT31;68755;51.984;5.646;2023-05-24T07:07:00;13.4;66.5
79301;SHT31;68755;51.984;5.646;2023-05-24T07:09:30;13.5;65.8
79301;SHT31;68755;51.984;5.646;2023-05-24T07:12:00;13.5;66.4
79301;SHT31;68755;51.984;5.646;2023-05-24T07:14:30;13.6;66.7
79301;SHT31;68755;51.984;5.646;2023-05-24T07:17:00;13.6;66.2
79301;SHT31;68755;51.984;5.646;2023-05-24T07:19:29;13.7;65.1
79301;SHT31;68755;51.984;5.646;2023-05-24T07:22:03;13.8;65.6
79301;SHT31;68755;51.984;5.646;2023-05-24T07:24:33;13.8;65.3
79301;SHT31;68755;51.984;5.646;2023-05-24T07:27:03;13.9;65.6
79301;SHT31;68755;51.984;5.646;2023-05-24T07:29:33;13.9;65.2
79301;SHT31;68755;51.984;5.646;2023-05-24T07:32:03;13.9;64.7
79301;SHT31;68755;51.984;5.646;2023-05-24T07:34:33;14.0;64.9
79301;SHT31;68755;51.984;5.646;2023-05-24T07:37:02;14.0;64.0
79301;SHT31;68755;51.984;5.646;2023-05-24T07:39:33;14.1;64.0
79301;SHT31;68755;51.984;5.646;2023-05-24T07:42:02;14.1;64.0
79301;SHT31;68755;51.984;5.646;2023-05-24T07:44:32;14.1;63.9
79301;SHT31;68755;51.984;5.646;2023-05-24T07:47:02;14.2;64.0
79301;SHT31;68755;51.984;5.646;2023-05-24T07:49:32;14.2;63.6
79301;SHT31;68755;51.984;5.646;2023-05-24T07:52:02;14.2;63.0
79301;SHT31;68755;51.984;5.646;2023-05-24T07:54:32;14.3;62.3
79301;SHT31;68755;51.984;5.646;2023-05-24T07:57:02;14.3;62.0
79301;SHT31;68755;51.984;5.646;2023-05-24T07:59:34;14.3;63.0
79301;SHT31;68755;51.984;5.646;2023-05-24T08:02:04;14.3;62.2
79301;SHT31;68755;51.984;5.646;2023-05-24T08:04:38;14.4;62.1
79301;SHT31;68755;51.984;5.646;2023-05-24T08:07:10;14.4;61.6
79301;SHT31;68755;51.984;5.646;2023-05-24T08:09:40;14.5;60.3
79301;SHT31;68755;51.984;5.646;2023-05-24T08:12:10;14.5;61.0
79301;SHT31;68755;51.984;5.646;2023-05-24T08:14:40;14.6;60.2
79301;SHT31;68755;51.984;5.646;2023-05-24T08:17:10;14.7;60.5
79301;SHT31;68755;51.984;5.646;2023-05-24T08:19:39;14.7;60.0
79301;SHT31;68755;51.984;5.646;2023-05-24T08:22:09;14.7;61.0
79301;SHT31;68755;51.984;5.646;2023-05-24T08:24:39;14.8;59.3
79301;SHT31;68755;51.984;5.646;2023-05-24T08:27:09;14.8;59.5
79301;SHT31;68755;51.984;5.646;2023-05-24T08:29:39;14.9;60.2
79301;SHT31;68755;51.984;5.646;2023-05-24T08:32:09;14.9;59.2
79301;SHT31;68755;51.984;5.646;2023-05-24T08:34:38;14.9;57.8
79301;SHT31;68755;51.984;5.646;2023-05-24T08:37:08;15.0;57.2
79301;SHT31;68755;51.984;5.646;2023-05-24T08:39:37;15.1;58.6
79301;SHT31;68755;51.984;5.646;2023-05-24T08:42:10;15.1;58.0
79301;SHT31;68755;51.984;5.646;2023-05-24T08:44:44;15.2;58.6
79301;SHT31;68755;51.984;5.646;2023-05-24T08:47:16;15.3;58.9
79301;SHT31;68755;51.984;5.646;2023-05-24T08:49:47;15.4;57.7
79301;SHT31;68755;51.984;5.646;2023-05-24T08:52:17;15.5;57.1
79301;SHT31;68755;51.984;5.646;2023-05-24T08:54:48;15.6;56.7
79301;SHT31;68755;51.984;5.646;2023-05-24T08:57:18;15.6;55.9
79301;SHT31;68755;51.984;5.646;2023-05-24T08:59:48;15.7;55.6
79301;SHT31;68755;51.984;5.646;2023-05-24T09:02:20;15.7;55.5
79301;SHT31;68755;51.984;5.646;2023-05-24T09:04:51;15.7;55.0
79301;SHT31;68755;51.984;5.646;2023-05-24T09:07:22;15.8;54.9
79301;SHT31;68755;51.984;5.646;2023-05-24T09:09:56;15.8;54.4
79301;SHT31;68755;51.984;5.646;2023-05-24T09:12:30;15.8;55.3
79301;SHT31;68755;51.984;5.646;2023-05-24T09:15:01;15.9;53.9
79301;SHT31;68755;51.984;5.646;2023-05-24T09:17:32;15.9;54.0
79301;SHT31;68755;51.984;5.646;2023-05-24T09:20:06;15.9;53.4
79301;SHT31;68755;51.984;5.646;2023-05-24T09:22:37;16.0;53.1
79301;SHT31;68755;51.984;5.646;2023-05-24T09:25:12;16.0;54.1
79301;SHT31;68755;51.984;5.646;2023-05-24T09:27:52;15.9;54.2
79301;SHT31;68755;51.984;5.646;2023-05-24T09:30:22;15.9;55.0
79301;SHT31;68755;51.984;5.646;2023-05-24T09:32:56;15.9;54.7
79301;SHT31;68755;51.984;5.646;2023-05-24T09:35:27;15.9;55.5
79301;SHT31;68755;51.984;5.646;2023-05-24T09:37:58;15.9;54.4
79301;SHT31;68755;51.984;5.646;2023-05-24T09:40:29;15.9;55.2
79301;SHT31;68755;51.984;5.646;2023-05-24T09:43:06;15.9;54.9
79301;SHT31;68755;51.984;5.646;2023-05-24T09:45:43;15.9;53.7
79301;SHT31;68755;51.984;5.646;2023-05-24T09:48:16;15.9;54.2
79301;SHT31;68755;51.984;5.646;2023-05-24T09:51:06;15.9;53.9
79301;SHT31;68755;51.984;5.646;2023-05-24T09:53:36;15.9;54.1
79301;SHT31;68755;51.984;5.646;2023-05-24T09:56:08;15.8;52.9
79301;SHT31;68755;51.984;5.646;2023-05-24T09:58:40;15.8;52.4
79301;SHT31;68755;51.984;5.646;2023-05-24T10:01:10;15.8;53.0
79301;SHT31;68755;51.984;5.646;2023-05-24T10:03:54;15.8;52.4
79301;SHT31;68755;51.984;5.646;2023-05-24T10:06:24;15.8;52.3
79301;SHT31;68755;51.984;5.646;2023-05-24T10:08:54;15.8;52.5
79301;SHT31;68755;51.984;5.646;2023-05-24T10:11:25;15.8;52.9
79301;SHT31;68755;51.984;5.646;2023-05-24T10:13:55;15.8;52.7
79301;SHT31;68755;51.984;5.646;2023-05-24T10:16:25;15.8;53.3
79301;SHT31;68755;51.984;5.646;2023-05-24T10:18:55;15.8;53.2
79301;SHT31;68755;51.984;5.646;2023-05-24T10:21:28;15.8;53.5
79301;SHT31;68755;51.984;5.646;2023-05-24T10:24:01;15.8;53.2
79301;SHT31;68755;51.984;5.646;2023-05-24T10:26:34;15.8;53.5
79301;SHT31;68755;51.984;5.646;2023-05-24T10:29:15;15.8;53.9
79301;SHT31;68755;51.984;5.646;2023-05-24T10:31:49;15.8;54.0
79301;SHT31;68755;51.984;5.646;2023-05-24T10:34:20;15.9;54.0
79301;SHT31;68755;51.984;5.646;2023-05-24T10:36:50;15.9;53.8
79301;SHT31;68755;51.984;5.646;2023-05-24T10:39:21;15.9;52.8
79301;SHT31;68755;51.984;5.646;2023-05-24T10:41:55;16.0;52.2
79301;SHT31;68755;51.984;5.646;2023-05-24T10:44:28;16.0;53.8
79301;SHT31;68755;51.984;5.646;2023-05-24T10:47:31;16.1;52.9
79301;SHT31;68755;51.984;5.646;2023-05-24T10:50:14;16.1;53.6
79301;SHT31;68755;51.984;5.646;2023-05-24T10:52:47;16.2;53.9
79301;SHT31;68755;51.984;5.646;2023-05-24T10:55:18;16.2;52.7
79301;SHT31;68755;51.984;5.646;2023-05-24T10:57:48;16.3;52.7
79301;SHT31;68755;51.984;5.646;2023-05-24T11:00:27;16.3;52.4
79301;SHT31;68755;51.984;5.646;2023-05-24T11:03:01;16.3;53.6
79301;SHT31;68755;51.984;5.646;2023-05-24T11:05:52;16.3;52.2
79301;SHT31;68755;51.984;5.646;2023-05-24T11:08:30;16.3;51.9
79301;SHT31;68755;51.984;5.646;2023-05-24T11:11:06;16.4;52.0
79301;SHT31;68755;51.984;5.646;2023-05-24T11:13:39;16.4;51.2
79301;SHT31;68755;51.984;5.646;2023-05-24T11:16:33;16.4;52.4
79301;SHT31;68755;51.984;5.646;2023-05-24T11:19:15;16.4;51.5
79301;SHT31;68755;51.984;5.646;2023-05-24T11:21:46;16.4;53.2
79301;SHT31;68755;51.984;5.646;2023-05-24T11:24:18;16.5;52.5
79301;SHT31;68755;51.984;5.646;2023-05-24T11:26:49;16.6;51.1
79301;SHT31;68755;51.984;5.646;2023-05-24T11:29:19;16.7;51.3
79301;SHT31;68755;51.984;5.646;2023-05-24T11:31:50;16.7;51.5
79301;SHT31;68755;51.984;5.646;2023-05-24T11:34:21;16.8;51.3
79301;SHT31;68755;51.984;5.646;2023-05-24T11:36:51;16.8;51.2
79301;SHT31;68755;51.984;5.646;2023-05-24T11:39:21;16.9;51.3
79301;SHT31;68755;51.984;5.646;2023-05-24T11:41:52;16.9;50.8
79301;SHT31;68755;51.984;5.646;2023-05-24T11:44:24;17.0;50.5
79301;SHT31;68755;51.984;5.646;2023-05-24T11:46:58;17.0;51.2
79301;SHT31;68755;51.984;5.646;2023-05-24T11:49:28;17.0;50.2
79301;SHT31;68755;51.984;5.646;2023-05-24T11:51:59;17.1;50.9
79301;SHT31;68755;51.984;5.646;2023-05-24T11:54:29;17.1;50.4
79301;SHT31;68755;51.984;5.646;2023-05-24T11:57:01;17.1;50.1
79301;SHT31;68755;51.984;5.646;2023-05-24T11:59:33;17.2;50.1
79301;SHT31;68755;51.984;5.646;2023-05-24T12:02:05;17.2;51.0
79301;SHT31;68755;51.984;5.646;2023-05-24T12:04:36;17.2;50.7
79301;SHT31;68755;51.984;5.646;2023-05-24T12:07:10;17.3;51.1
79301;SHT31;68755;51.984;5.646;2023-05-24T12:09:40;17.3;50.7
79301;SHT31;68755;51.984;5.646;2023-05-24T12:12:12;17.4;50.3
79301;SHT31;68755;51.984;5.646;2023-05-24T12:14:42;17.4;49.5
79301;SHT31;68755;51.984;5.646;2023-05-24T12:17:15;17.5;50.1
79301;SHT31;68755;51.984;5.646;2023-05-24T12:19:48;17.5;49.8
79301;SHT31;68755;51.984;5.646;2023-05-24T12:22:25;17.6;49.9
79301;SHT31;68755;51.984;5.646;2023-05-24T12:24:55;17.6;50.0
79301;SHT31;68755;51.984;5.646;2023-05-24T12:27:26;17.6;49.7
79301;SHT31;68755;51.984;5.646;2023-05-24T12:30:07;17.7;51.0
79301;SHT31;68755;51.984;5.646;2023-05-24T12:32:43;17.7;49.8
79301;SHT31;68755;51.984;5.646;2023-05-24T12:35:13;17.8;49.9
79301;SHT31;68755;51.984;5.646;2023-05-24T12:37:44;17.8;49.0
79301;SHT31;68755;51.984;5.646;2023-05-24T12:40:19;17.8;49.8
79301;SHT31;68755;51.984;5.646;2023-05-24T12:42:52;17.9;48.8
79301;SHT31;68755;51.984;5.646;2023-05-24T12:45:24;17.9;48.9
79301;SHT31;68755;51.984;5.646;2023-05-24T12:47:55;17.9;48.9
79301;SHT31;68755;51.984;5.646;2023-05-24T12:50:26;17.9;48.4
79301;SHT31;68755;51.984;5.646;2023-05-24T12:52:55;17.9;47.9
79301;SHT31;68755;51.984;5.646;2023-05-24T12:55:27;17.8;47.9
79301;SHT31;68755;51.984;5.646;2023-05-24T12:57:57;17.8;48.5
79301;SHT31;68755;51.984;5.646;2023-05-24T13:00:29;17.8;50.0
79301;SHT31;68755;51.984;5.646;2023-05-24T13:02:59;17.8;49.5
79301;SHT31;68755;51.984;5.646;2023-05-24T13:05:29;17.8;48.6
79301;SHT31;68755;51.984;5.646;2023-05-24T13:07:59;17.9;48.9
79301;SHT31;68755;51.984;5.646;2023-05-24T13:10:28;17.9;47.9
79301;SHT31;68755;51.984;5.646;2023-05-24T13:12:58;17.9;47.8
79301;SHT31;68755;51.984;5.646;2023-05-24T13:15:28;17.9;47.9
79301;SHT31;68755;51.984;5.646;2023-05-24T13:17:57;17.9;47.3
79301;SHT31;68755;51.984;5.646;2023-05-24T13:20:27;17.9;48.3
79301;SHT31;68755;51.984;5.646;2023-05-24T13:22:57;17.9;47.7
79301;SHT31;68755;51.984;5.646;2023-05-24T13:25:26;17.9;47.8
79301;SHT31;68755;51.984;5.646;2023-05-24T13:27:56;17.9;48.8
79301;SHT31;68755;51.984;5.646;2023-05-24T13:30:26;18.0;48.8
79301;SHT31;68755;51.984;5.646;2023-05-24T13:32:56;18.0;50.6
79301;SHT31;68755;51.984;5.646;2023-05-24T13:35:28;18.1;48.1
79301;SHT31;68755;51.984;5.646;2023-05-24T13:37:58;18.2;46.4
79301;SHT31;68755;51.984;5.646;2023-05-24T13:40:30;18.2;46.1
79301;SHT31;68755;51.984;5.646;2023-05-24T13:43:00;18.3;46.6
79301;SHT31;68755;51.984;5.646;2023-05-24T13:45:31;18.3;46.7
79301;SHT31;68755;51.984;5.646;2023-05-24T13:48:00;18.3;46.9
79301;SHT31;68755;51.984;5.646;2023-05-24T13:50:33;18.3;46.6
79301;SHT31;68755;51.984;5.646;2023-05-24T13:53:04;18.3;46.8
79301;SHT31;68755;51.984;5.646;2023-05-24T13:55:35;18.3;46.5
79301;SHT31;68755;51.984;5.646;2023-05-24T13:58:06;18.3;47.1
79301;SHT31;68755;51.984;5.646;2023-05-24T14:00:35;18.2;46.5
79301;SHT31;68755;51.984;5.646;2023-05-24T14:03:05;18.2;46.4
79301;SHT31;68755;51.984;5.646;2023-05-24T14:05:35;18.2;46.6
79301;SHT31;68755;51.984;5.646;2023-05-24T14:08:06;18.1;46.5
79301;SHT31;68755;51.984;5.646;2023-05-24T14:10:36;18.1;46.5
79301;SHT31;68755;51.984;5.646;2023-05-24T14:13:06;18.1;46.8
79301;SHT31;68755;51.984;5.646;2023-05-24T14:15:36;18.0;46.9
79301;SHT31;68755;51.984;5.646;2023-05-24T14:18:06;18.0;46.9
79301;SHT31;68755;51.984;5.646;2023-05-24T14:20:36;18.0;46.9
79301;SHT31;68755;51.984;5.646;2023-05-24T14:23:07;17.9;47.2
79301;SHT31;68755;51.984;5.646;2023-05-24T14:25:38;17.9;47.2
79301;SHT31;68755;51.984;5.646;2023-05-24T14:28:08;17.9;46.4
79301;SHT31;68755;51.984;5.646;2023-05-24T14:30:38;17.9;46.5
79301;SHT31;68755;51.984;5.646;2023-05-24T14:33:08;17.8;46.1
79301;SHT31;68755;51.984;5.646;2023-05-24T14:35:40;17.8;46.4
79301;SHT31;68755;51.984;5.646;2023-05-24T14:38:10;17.8;46.4
79301;SHT31;68755;51.984;5.646;2023-05-24T14:40:42;17.8;46.7
79301;SHT31;68755;51.984;5.646;2023-05-24T14:43:14;17.8;46.9
79301;SHT31;68755;51.984;5.646;2023-05-24T14:45:44;17.8;46.9
79301;SHT31;68755;51.984;5.646;2023-05-24T14:48:15;17.7;47.2
79301;SHT31;68755;51.984;5.646;2023-05-24T14:50:45;17.7;47.2
79301;SHT31;68755;51.984;5.646;2023-05-24T14:53:15;17.7;46.9
79301;SHT31;68755;51.984;5.646;2023-05-24T14:55:46;17.7;46.1
79301;SHT31;68755;51.984;5.646;2023-05-24T14:58:16;17.7;47.2
79301;SHT31;68755;51.984;5.646;2023-05-24T15:00:46;17.7;47.7
79301;SHT31;68755;51.984;5.646;2023-05-24T15:03:17;17.7;48.1
79301;SHT31;68755;51.984;5.646;2023-05-24T15:05:47;17.7;48.0
79301;SHT31;68755;51.984;5.646;2023-05-24T15:08:19;17.7;48.5
79301;SHT31;68755;51.984;5.646;2023-05-24T15:10:49;17.7;49.0
79301;SHT31;68755;51.984;5.646;2023-05-24T15:13:21;17.7;47.9
79301;SHT31;68755;51.984;5.646;2023-05-24T15:15:52;17.7;48.0
79301;SHT31;68755;51.984;5.646;2023-05-24T15:18:24;17.7;47.9
79301;SHT31;68755;51.984;5.646;2023-05-24T15:20:54;17.7;48.5
79301;SHT31;68755;51.984;5.646;2023-05-24T15:23:24;17.7;47.7
79301;SHT31;68755;51.984;5.646;2023-05-24T15:25:54;17.8;47.0
79301;SHT31;68755;51.984;5.646;2023-05-24T15:28:24;17.8;47.5
79301;SHT31;68755;51.984;5.646;2023-05-24T15:30:54;17.8;47.5
79301;SHT31;68755;51.984;5.646;2023-05-24T15:33:24;17.8;47.7
79301;SHT31;68755;51.984;5.646;2023-05-24T15:35:54;17.8;48.0
79301;SHT31;68755;51.984;5.646;2023-05-24T15:38:24;17.8;48.0
79301;SHT31;68755;51.984;5.646;2023-05-24T15:40:53;17.8;48.6
79301;SHT31;68755;51.984;5.646;2023-05-24T15:43:23;17.8;48.8
79301;SHT31;68755;51.984;5.646;2023-05-24T15:45:52;17.8;48.1
79301;SHT31;68755;51.984;5.646;2023-05-24T15:48:22;17.8;47.9
79301;SHT31;68755;51.984;5.646;2023-05-24T15:50:52;17.8;47.8
79301;SHT31;68755;51.984;5.646;2023-05-24T15:53:22;17.8;48.1
79301;SHT31;68755;51.984;5.646;2023-05-24T15:55:52;17.8;47.8
79301;SHT31;68755;51.984;5.646;2023-05-24T15:58:23;17.8;48.1
79301;SHT31;68755;51.984;5.646;2023-05-24T16:00:53;17.8;48.2
79301;SHT31;68755;51.984;5.646;2023-05-24T16:03:22;17.7;48.2
79301;SHT31;68755;51.984;5.646;2023-05-24T16:05:52;17.7;48.7
79301;SHT31;68755;51.984;5.646;2023-05-24T16:08:22;17.7;48.4
79301;SHT31;68755;51.984;5.646;2023-05-24T16:10:54;17.7;48.1
79301;SHT31;68755;51.984;5.646;2023-05-24T16:13:23;17.7;48.0
79301;SHT31;68755;51.984;5.646;2023-05-24T16:15:53;17.7;49.0
79301;SHT31;68755;51.984;5.646;2023-05-24T16:18:23;17.7;48.9
79301;SHT31;68755;51.984;5.646;2023-05-24T16:20:57;17.6;48.8
79301;SHT31;68755;51.984;5.646;2023-05-24T16:23:29;17.6;49.1
79301;SHT31;68755;51.984;5.646;2023-05-24T16:25:58;17.6;49.1
79301;SHT31;68755;51.984;5.646;2023-05-24T16:28:28;17.6;49.0